createdAt,value
2022-12-03T00:02:23.237Z,12.45
2022-12-03T00:04:51.086Z,11.30
2022-12-03T00:07:18.499Z,10.75
2022-12-03T00:09:45.625Z,11.25
2022-12-03T00:12:12.846Z,11.77
2022-12-03T00:14:53.255Z,14.73
2022-12-03T00:17:20.596Z,11.20
2022-12-03T00:19:47.713Z,11.25
2022-12-03T00:22:14.874Z,15.93
2022-12-03T00:24:42.050Z,12.20
2022-12-03T00:27:09.231Z,11.00
2022-12-03T00:29:36.374Z,10.02
2022-12-03T00:32:03.511Z,9.55
2022-12-03T00:34:30.627Z,12.93
2022-12-03T00:36:57.773Z,10.75
2022-12-03T00:39:24.987Z,10.40
2022-12-03T00:41:52.113Z,10.45
2022-12-03T00:44:19.275Z,10.93
2022-12-03T00:46:46.516Z,10.85
2022-12-03T00:49:13.754Z,10.25
2022-12-03T00:51:40.932Z,10.20
2022-12-03T00:54:08.346Z,11.52
2022-12-03T00:56:35.492Z,11.02
2022-12-03T00:59:02.656Z,11.13
2022-12-03T01:01:29.854Z,9.82
2022-12-03T01:03:57.196Z,10.88
2022-12-03T01:06:24.296Z,9.38
2022-12-03T01:08:51.413Z,9.65
2022-12-03T01:11:37.446Z,9.82
2022-12-03T01:14:25.179Z,9.73
2022-12-03T01:16:52.300Z,11.18
2022-12-03T01:19:19.603Z,11.65
2022-12-03T01:21:48.640Z,10.35
2022-12-03T01:24:15.835Z,10.90
2022-12-03T01:26:43.102Z,9.82
2022-12-03T01:29:10.386Z,11.20
2022-12-03T01:31:56.458Z,10.43
2022-12-03T01:34:23.665Z,10.90
2022-12-03T01:36:52.459Z,10.95
2022-12-03T01:39:19.908Z,9.82
2022-12-03T01:41:47.550Z,10.50
2022-12-03T01:44:17.171Z,10.98
2022-12-03T01:46:45.159Z,9.98
2022-12-03T01:49:17.757Z,10.18
2022-12-03T01:51:45.133Z,12.23
2022-12-03T01:54:16.627Z,10.80
2022-12-03T01:56:43.856Z,9.98
2022-12-03T01:59:14.453Z,10.50
2022-12-03T02:01:41.674Z,9.23
2022-12-03T02:04:10.889Z,10.82
2022-12-03T02:06:38.091Z,12.27
2022-12-03T02:09:08.458Z,9.25
2022-12-03T02:11:38.018Z,10.50
2022-12-03T02:14:09.821Z,10.48
2022-12-03T02:16:37.832Z,9.68
2022-12-03T02:19:08.569Z,10.13
2022-12-03T02:21:35.724Z,9.98
2022-12-03T02:24:10.191Z,9.10
2022-12-03T02:26:37.326Z,11.73
2022-12-03T02:29:04.522Z,12.57
2022-12-03T02:31:32.304Z,10.50
2022-12-03T02:33:59.520Z,10.75
2022-12-03T02:36:26.817Z,13.23
2022-12-03T02:38:53.986Z,9.93
2022-12-03T02:41:39.993Z,12.32
2022-12-03T02:44:07.915Z,10.18
2022-12-03T02:46:35.175Z,9.00
2022-12-03T02:49:03.280Z,8.63
2022-12-03T02:51:30.573Z,10.52
2022-12-03T02:53:57.840Z,9.48
2022-12-03T02:56:27.630Z,9.80
2022-12-03T02:58:57.126Z,8.65
2022-12-03T03:01:24.350Z,9.38
2022-12-03T03:03:52.044Z,10.52
2022-12-03T03:06:19.907Z,9.93
2022-12-03T03:08:47.162Z,8.80
2022-12-03T03:11:15.006Z,11.07
2022-12-03T03:13:42.238Z,10.20
2022-12-03T03:16:09.940Z,9.68
2022-12-03T03:18:37.406Z,9.23
2022-12-03T03:21:05.053Z,10.05
2022-12-03T03:23:32.276Z,9.88
2022-12-03T03:26:05.529Z,10.32
2022-12-03T03:28:33.145Z,9.65
2022-12-03T03:31:03.210Z,10.18
2022-12-03T03:33:30.737Z,9.18
2022-12-03T03:35:59.915Z,11.30
2022-12-03T03:38:27.898Z,10.57
2022-12-03T03:40:55.188Z,12.00
2022-12-03T03:43:23.126Z,9.65
2022-12-03T03:45:51.317Z,9.50
2022-12-03T03:48:18.936Z,11.13
2022-12-03T03:50:46.307Z,9.77
2022-12-03T03:53:13.904Z,9.73
2022-12-03T03:55:41.148Z,9.98
2022-12-03T03:58:08.640Z,8.82
2022-12-03T04:00:36.530Z,9.68
2022-12-03T04:03:04.497Z,9.52
2022-12-03T04:05:31.738Z,9.20
2022-12-03T04:07:59.304Z,10.45
2022-12-03T04:10:45.430Z,10.07
2022-12-03T04:13:12.722Z,9.85
2022-12-03T04:15:39.853Z,10.00
2022-12-03T04:18:25.616Z,9.55
2022-12-03T04:21:12.702Z,10.02
2022-12-03T04:23:39.882Z,10.43
2022-12-03T04:26:45.379Z,9.60
2022-12-03T04:29:12.796Z,8.80
2022-12-03T04:31:58.444Z,9.55
2022-12-03T04:34:44.283Z,9.57
2022-12-03T04:37:12.598Z,9.85
2022-12-03T04:39:39.734Z,9.50
2022-12-03T04:42:07.041Z,10.35
2022-12-03T04:44:37.613Z,8.95
2022-12-03T04:47:04.881Z,9.45
2022-12-03T04:49:32.253Z,10.23
2022-12-03T04:51:59.357Z,8.90
2022-12-03T04:54:27.288Z,9.30
2022-12-03T04:56:54.562Z,10.02
2022-12-03T04:59:21.773Z,9.25
2022-12-03T05:01:48.985Z,10.38
2022-12-03T05:04:16.280Z,9.02
2022-12-03T05:06:43.497Z,10.13
2022-12-03T05:09:11.044Z,9.30
2022-12-03T05:11:38.188Z,9.13
2022-12-03T05:14:05.546Z,9.10
2022-12-03T05:16:32.913Z,9.13
2022-12-03T05:19:00.113Z,12.40
2022-12-03T05:21:27.296Z,9.70
2022-12-03T05:23:54.529Z,9.95
2022-12-03T05:26:21.760Z,8.77
2022-12-03T05:28:48.940Z,11.20
2022-12-03T05:31:16.439Z,10.23
2022-12-03T05:33:44.550Z,9.52
2022-12-03T05:36:11.889Z,9.18
2022-12-03T05:38:39.112Z,9.60
2022-12-03T05:41:26.317Z,8.77
2022-12-03T05:43:53.478Z,9.32
2022-12-03T05:46:20.690Z,9.75
2022-12-03T05:48:47.985Z,9.32
2022-12-03T05:51:15.104Z,9.57
2022-12-03T05:53:42.305Z,10.00
2022-12-03T05:56:09.493Z,9.82
2022-12-03T05:58:36.664Z,9.48
2022-12-03T06:01:03.838Z,11.27
2022-12-03T06:03:31.285Z,10.75
2022-12-03T06:05:58.532Z,8.80
2022-12-03T06:08:25.702Z,9.10
2022-12-03T06:10:52.871Z,10.90
2022-12-03T06:13:20.094Z,9.82
2022-12-03T06:15:47.356Z,8.68
2022-12-03T06:18:14.619Z,9.32
2022-12-03T06:20:41.804Z,9.80
2022-12-03T06:23:09.056Z,9.77
2022-12-03T06:25:36.304Z,10.10
2022-12-03T06:28:03.484Z,9.13
2022-12-03T06:30:30.692Z,8.98
2022-12-03T06:32:57.864Z,10.55
2022-12-03T06:35:25.031Z,9.60
2022-12-03T06:37:52.569Z,9.30
2022-12-03T06:40:19.849Z,8.98
2022-12-03T06:42:46.987Z,9.27
2022-12-03T06:45:14.172Z,9.80
2022-12-03T06:47:41.404Z,9.40
2022-12-03T06:50:09.246Z,9.40
2022-12-03T06:52:36.467Z,10.15
2022-12-03T06:55:03.690Z,9.88
2022-12-03T06:57:31.013Z,12.52
2022-12-03T06:59:58.299Z,10.20
2022-12-03T07:02:26.725Z,11.32
2022-12-03T07:04:54.174Z,11.43
2022-12-03T07:07:21.751Z,10.07
2022-12-03T07:09:48.931Z,10.75
2022-12-03T07:12:16.188Z,12.45
2022-12-03T07:14:43.312Z,11.13
2022-12-03T07:17:10.800Z,11.73
2022-12-03T07:19:37.974Z,13.52
2022-12-03T07:22:05.660Z,12.18
2022-12-03T07:24:32.859Z,14.10
2022-12-03T07:27:00.027Z,13.75
2022-12-03T07:29:27.164Z,10.15
2022-12-03T07:31:54.441Z,16.80
2022-12-03T07:34:21.742Z,13.75
2022-12-03T07:36:48.838Z,15.10
2022-12-03T07:39:16.080Z,11.43
2022-12-03T07:41:43.204Z,12.95
2022-12-03T07:44:14.329Z,12.07
2022-12-03T07:46:42.483Z,16.35
2022-12-03T07:49:09.873Z,17.40
2022-12-03T07:51:37.103Z,13.40
2022-12-03T07:54:04.505Z,16.05
2022-12-03T07:56:31.748Z,12.52
2022-12-03T07:58:58.878Z,15.50
2022-12-03T08:01:26.152Z,14.70
2022-12-03T08:03:53.365Z,17.13
2022-12-03T08:06:20.473Z,17.40
2022-12-03T08:08:47.614Z,17.42
2022-12-03T08:11:15.062Z,15.00
2022-12-03T08:13:42.266Z,18.35
2022-12-03T08:16:19.695Z,17.30
2022-12-03T08:18:47.550Z,21.17
2022-12-03T08:21:15.901Z,24.00
2022-12-03T08:23:43.135Z,17.70
2022-12-03T08:26:20.315Z,20.67
2022-12-03T08:28:47.560Z,23.27
2022-12-03T08:31:20.090Z,20.73
2022-12-03T08:33:54.279Z,19.27
2022-12-03T08:36:30.371Z,21.15
2022-12-03T08:39:01.377Z,24.52
2022-12-03T08:41:48.844Z,15.07
2022-12-03T08:44:24.750Z,19.55
2022-12-03T08:49:19.841Z,22.00
2022-12-03T08:51:49.538Z,17.85
2022-12-03T08:54:19.035Z,16.35
2022-12-03T08:56:46.264Z,18.20
2022-12-03T08:59:22.348Z,16.48
2022-12-03T09:01:49.756Z,15.13
2022-12-03T09:04:26.168Z,24.48
2022-12-03T09:06:53.738Z,16.20
2022-12-03T09:09:21.541Z,17.55
2022-12-03T09:11:48.715Z,19.58
2022-12-03T09:14:18.895Z,19.75
2022-12-03T09:16:46.363Z,20.63
2022-12-03T09:19:13.511Z,14.70
2022-12-03T09:21:40.617Z,19.90
2022-12-03T09:24:07.909Z,15.65
2022-12-03T09:26:35.356Z,21.70
2022-12-03T09:29:05.262Z,18.88
2022-12-03T09:31:34.980Z,16.13
2022-12-03T09:34:03.218Z,24.95
2022-12-03T09:36:30.433Z,26.50
2022-12-03T09:38:57.988Z,32.22
2022-12-03T09:41:25.623Z,31.58
2022-12-03T09:44:15.550Z,23.02
2022-12-03T09:46:40.901Z,26.40
2022-12-03T09:49:13.951Z,23.00
2022-12-03T09:51:43.316Z,26.10
2022-12-03T09:54:10.996Z,25.63
2022-12-03T09:56:38.687Z,27.17
2022-12-03T09:59:15.582Z,22.33
2022-12-03T10:01:42.843Z,592.90
2022-12-03T10:04:11.187Z,265.33
2022-12-03T10:06:43.996Z,247.82
2022-12-03T10:09:14.545Z,186.10
2022-12-03T10:11:41.768Z,188.23
2022-12-03T10:14:11.514Z,146.10
2022-12-03T10:16:40.331Z,67.15
2022-12-03T10:19:07.705Z,59.67
2022-12-03T10:21:38.474Z,56.88
2022-12-03T10:24:17.572Z,48.08
2022-12-03T10:26:45.430Z,42.80
2022-12-03T10:29:20.029Z,44.92
2022-12-03T10:31:54.951Z,40.13
2022-12-03T10:34:30.732Z,50.57
2022-12-03T10:39:24.959Z,41.92
2022-12-03T10:41:54.461Z,39.28
2022-12-03T10:44:22.565Z,41.53
2022-12-03T10:47:06.123Z,38.75
2022-12-03T10:49:36.832Z,37.40
2022-12-03T10:52:04.431Z,43.88
2022-12-03T10:54:32.397Z,44.15
2022-12-03T10:57:00.876Z,34.67
2022-12-03T10:59:32.677Z,38.28
2022-12-03T11:01:59.968Z,39.92
2022-12-03T11:04:34.816Z,37.92
2022-12-03T11:07:12.897Z,34.72
2022-12-03T11:09:40.266Z,35.47
2022-12-03T11:12:08.170Z,38.47
2022-12-03T11:14:51.425Z,36.38
2022-12-03T11:17:37.841Z,35.45
2022-12-03T11:20:05.587Z,37.63
2022-12-03T11:22:40.574Z,32.88
2022-12-03T11:25:26.316Z,34.07
2022-12-03T11:28:15.458Z,33.95
2022-12-03T11:30:52.112Z,37.83
2022-12-03T11:33:33.061Z,30.75
2022-12-03T11:36:06.198Z,33.95
2022-12-03T11:38:40.886Z,33.42
2022-12-03T11:41:11.280Z,32.47
2022-12-03T11:43:53.691Z,33.72
2022-12-03T11:46:22.934Z,32.13
2022-12-03T11:48:52.748Z,27.20
2022-12-03T11:51:22.012Z,34.22
2022-12-03T11:53:49.659Z,30.10
2022-12-03T11:56:21.411Z,29.05
2022-12-03T11:58:48.666Z,28.88
2022-12-03T12:01:16.415Z,33.92
2022-12-03T12:03:43.658Z,33.28
2022-12-03T12:06:12.231Z,30.70
2022-12-03T12:08:40.997Z,30.63
2022-12-03T12:11:21.065Z,31.50
2022-12-03T12:13:52.579Z,33.80
2022-12-03T12:16:41.672Z,34.42
2022-12-03T12:19:27.790Z,34.55
2022-12-03T12:21:55.321Z,32.22
2022-12-03T12:24:38.178Z,35.30
2022-12-03T12:27:07.417Z,32.35
2022-12-03T12:29:35.393Z,37.17
2022-12-03T12:32:17.598Z,39.83
2022-12-03T12:34:46.141Z,39.60
2022-12-03T12:37:22.428Z,41.55
2022-12-03T12:39:53.447Z,34.25
2022-12-03T12:42:30.217Z,40.90
2022-12-03T12:44:59.456Z,43.70
2022-12-03T12:47:26.678Z,38.97
2022-12-03T12:49:54.196Z,146.98
2022-12-03T12:52:21.505Z,97.40
2022-12-03T12:54:48.807Z,86.88
2022-12-03T12:57:21.273Z,84.50
2022-12-03T12:59:48.658Z,75.15
2022-12-03T13:02:35.991Z,73.38
2022-12-03T13:05:04.664Z,77.97
2022-12-03T13:07:32.570Z,72.22
2022-12-03T13:10:01.054Z,68.28
2022-12-03T13:12:28.248Z,63.53
2022-12-03T13:14:57.561Z,60.15
2022-12-03T13:17:26.068Z,58.72
2022-12-03T13:20:03.608Z,62.30
2022-12-03T13:22:34.090Z,58.72
2022-12-03T13:25:50.607Z,53.83
2022-12-03T13:28:17.271Z,48.33
2022-12-03T13:30:44.453Z,57.10
2022-12-03T13:33:26.387Z,48.80
2022-12-03T13:35:54.621Z,52.40
2022-12-03T13:38:23.568Z,56.03
2022-12-03T13:40:59.064Z,47.55
2022-12-03T13:43:29.338Z,44.95
2022-12-03T13:45:56.686Z,46.53
2022-12-03T13:48:25.432Z,53.60
2022-12-03T13:50:53.236Z,54.53
2022-12-03T13:53:26.418Z,45.47
2022-12-03T13:55:59.050Z,50.20
2022-12-03T13:58:26.198Z,45.63
2022-12-03T14:00:53.447Z,47.45
2022-12-03T14:03:20.987Z,45.83
2022-12-03T14:05:48.200Z,44.40
2022-12-03T14:08:15.412Z,41.00
2022-12-03T14:10:42.736Z,42.10
2022-12-03T14:13:09.884Z,40.28
2022-12-03T14:15:38.496Z,42.75
2022-12-03T14:18:05.701Z,40.42
2022-12-03T14:20:38.142Z,40.67
2022-12-03T14:23:05.293Z,38.88
2022-12-03T14:25:37.720Z,40.55
2022-12-03T14:28:08.690Z,41.45
2022-12-03T14:30:38.603Z,43.90
2022-12-03T14:33:05.784Z,38.65
2022-12-03T14:35:32.907Z,38.40
2022-12-03T14:38:00.113Z,34.67
2022-12-03T14:40:28.324Z,36.60
2022-12-03T14:42:55.833Z,38.33
2022-12-03T14:45:24.180Z,35.67
2022-12-03T14:47:51.338Z,35.13
2022-12-03T14:50:18.524Z,32.30
2022-12-03T14:52:52.194Z,30.90
2022-12-03T14:55:19.684Z,32.60
2022-12-03T14:57:46.964Z,42.50
2022-12-03T15:00:14.552Z,34.70
2022-12-03T15:02:41.796Z,32.75
2022-12-03T15:05:09.038Z,33.83
2022-12-03T15:07:38.610Z,35.53
2022-12-03T15:10:07.114Z,29.70
2022-12-03T15:12:34.673Z,28.92
2022-12-03T15:15:01.853Z,36.08
2022-12-03T15:17:31.879Z,29.73
2022-12-03T15:19:59.624Z,31.13
2022-12-03T15:22:26.795Z,30.02
2022-12-03T15:24:54.018Z,29.65
2022-12-03T15:27:26.469Z,30.00
2022-12-03T15:29:53.787Z,28.60
2022-12-03T15:32:23.501Z,27.83
2022-12-03T15:37:32.795Z,28.35
2022-12-03T15:39:59.977Z,29.00
2022-12-03T15:42:29.647Z,26.90
2022-12-03T15:44:56.835Z,24.75
2022-12-03T15:47:24.135Z,26.42
2022-12-03T15:49:51.708Z,29.33
2022-12-03T15:52:19.149Z,27.50
2022-12-03T15:54:46.475Z,27.25
2022-12-03T15:57:13.621Z,29.33
2022-12-03T15:59:40.784Z,27.67
2022-12-03T16:02:08.046Z,25.67
2022-12-03T16:07:19.976Z,26.10
2022-12-03T16:09:52.172Z,25.50
2022-12-03T16:12:19.565Z,25.35
2022-12-03T16:14:47.015Z,28.75
2022-12-03T16:17:14.141Z,23.50
2022-12-03T16:19:41.363Z,29.73
2022-12-03T16:22:08.555Z,29.08
2022-12-03T16:24:35.784Z,24.15
2022-12-03T16:27:02.978Z,26.90
2022-12-03T16:29:30.162Z,26.80
2022-12-03T16:31:57.321Z,23.77
2022-12-03T16:34:24.749Z,24.85
2022-12-03T16:36:52.204Z,26.52
2022-12-03T16:39:19.580Z,27.60
2022-12-03T16:41:46.794Z,26.17
2022-12-03T16:44:30.417Z,31.27
2022-12-03T16:47:33.780Z,24.60
2022-12-03T16:50:24.316Z,24.00
2022-12-03T16:52:54.764Z,28.52
2022-12-03T16:55:21.948Z,29.60
2022-12-03T16:57:49.309Z,23.15
2022-12-03T17:00:16.837Z,24.73
2022-12-03T17:02:44.170Z,24.23
2022-12-03T17:05:11.500Z,22.63
2022-12-03T17:07:38.780Z,27.33
2022-12-03T17:10:06.605Z,23.25
2022-12-03T17:13:01.136Z,23.25
2022-12-03T17:15:21.024Z,22.55
2022-12-03T17:18:03.749Z,24.50
2022-12-03T17:20:31.597Z,23.40
2022-12-03T17:22:59.297Z,26.02
2022-12-03T17:25:26.942Z,27.70
2022-12-03T17:27:54.450Z,223.45
2022-12-03T17:30:21.712Z,142.27
2022-12-03T17:32:50.356Z,115.47
2022-12-03T17:35:18.446Z,117.82
2022-12-03T17:37:45.769Z,117.40
2022-12-03T17:40:13.791Z,117.82
2022-12-03T17:42:41.042Z,118.22
2022-12-03T17:45:08.549Z,127.10
2022-12-03T17:47:35.765Z,120.72
2022-12-03T17:50:03.038Z,113.13
2022-12-03T17:52:30.224Z,113.35
2022-12-03T17:55:18.070Z,113.97
2022-12-03T17:57:44.556Z,110.95
2022-12-03T18:00:12.113Z,111.90
2022-12-03T18:02:39.248Z,107.00
2022-12-03T18:05:06.589Z,108.00
2022-12-03T18:07:33.800Z,102.70
2022-12-03T18:10:01.062Z,100.93
2022-12-03T18:12:30.138Z,100.40
2022-12-03T18:14:57.290Z,100.45
2022-12-03T18:17:24.715Z,103.57
2022-12-03T18:19:52.147Z,96.80
2022-12-03T18:22:19.970Z,92.03
2022-12-03T18:24:50.232Z,94.57
2022-12-03T18:27:18.918Z,92.63
2022-12-03T18:29:46.068Z,89.97
2022-12-03T18:32:27.553Z,88.13
2022-12-03T18:34:55.980Z,89.15
2022-12-03T18:37:23.460Z,83.63
2022-12-03T18:39:50.638Z,85.28
2022-12-03T18:42:19.312Z,86.03
2022-12-03T18:44:49.862Z,85.38
2022-12-03T18:47:19.075Z,77.15
2022-12-03T18:49:46.384Z,83.05
2022-12-03T18:52:17.379Z,78.82
2022-12-03T18:54:44.607Z,76.28
2022-12-03T18:57:12.108Z,76.60
2022-12-03T18:59:39.500Z,77.85
2022-12-03T19:02:07.626Z,76.57
2022-12-03T19:04:34.910Z,76.80
2022-12-03T19:07:03.645Z,75.72
2022-12-03T19:09:30.957Z,74.63
2022-12-03T19:11:58.167Z,76.88
2022-12-03T19:14:25.283Z,74.05
2022-12-03T19:16:52.495Z,73.00
2022-12-03T19:19:19.684Z,74.30
2022-12-03T19:21:46.828Z,71.32
2022-12-03T19:24:24.396Z,73.18
2022-12-03T19:26:54.673Z,71.05
2022-12-03T19:29:22.904Z,71.43
2022-12-03T19:31:51.176Z,71.72
2022-12-03T19:34:18.525Z,71.35
2022-12-03T19:36:45.766Z,67.15
2022-12-03T19:39:13.006Z,69.10
2022-12-03T19:41:41.895Z,67.60
2022-12-03T19:44:11.026Z,70.20
2022-12-03T19:46:38.424Z,69.30
2022-12-03T19:49:08.775Z,64.25
2022-12-03T19:51:36.278Z,66.35
2022-12-03T19:54:04.736Z,61.85
2022-12-03T19:56:32.304Z,62.85
2022-12-03T19:58:59.605Z,64.30
2022-12-03T20:01:28.285Z,60.03
2022-12-03T20:03:56.301Z,62.80
2022-12-03T20:06:25.425Z,64.65
2022-12-03T20:08:56.697Z,62.10
2022-12-03T20:11:25.320Z,61.90
2022-12-03T20:13:53.911Z,56.42
2022-12-03T20:16:21.266Z,62.97
2022-12-03T20:18:49.504Z,61.92
2022-12-03T20:21:17.454Z,60.03
2022-12-03T20:23:45.766Z,59.67
2022-12-03T20:26:17.440Z,56.10
2022-12-03T20:28:44.835Z,59.50
2022-12-03T20:31:13.690Z,55.00
2022-12-03T20:33:42.115Z,59.83
2022-12-03T20:36:09.740Z,58.78
2022-12-03T20:38:38.504Z,59.72
2022-12-03T20:41:06.800Z,57.30
2022-12-03T20:43:33.958Z,55.10
2022-12-03T20:46:11.427Z,51.38
2022-12-03T20:48:39.070Z,52.30
2022-12-03T20:51:07.202Z,52.63
2022-12-03T20:53:35.090Z,50.58
2022-12-03T20:56:02.836Z,56.80
2022-12-03T20:58:31.049Z,54.03
2022-12-03T21:01:20.881Z,55.05
2022-12-03T21:03:48.530Z,51.90
2022-12-03T21:06:15.961Z,53.60
2022-12-03T21:08:44.289Z,52.20
2022-12-03T21:11:12.775Z,50.80
2022-12-03T21:13:43.948Z,49.67
2022-12-03T21:16:13.553Z,50.42
2022-12-03T21:18:40.811Z,51.97
2022-12-03T21:21:08.703Z,50.17
2022-12-03T21:23:36.447Z,54.22
2022-12-03T21:26:11.081Z,48.45
2022-12-03T21:28:38.944Z,49.20
2022-12-03T21:31:08.382Z,46.42
2022-12-03T21:33:36.079Z,48.55
2022-12-03T21:36:03.800Z,44.92
2022-12-03T21:38:31.752Z,47.75
2022-12-03T21:40:59.096Z,46.67
2022-12-03T21:43:26.616Z,47.40
2022-12-03T21:45:54.040Z,47.08
2022-12-03T21:48:21.273Z,44.67
2022-12-03T21:50:58.990Z,45.00
2022-12-03T21:53:26.291Z,43.55
2022-12-03T21:55:53.401Z,44.38
2022-12-03T21:58:20.553Z,43.67
2022-12-03T22:00:47.736Z,43.40
2022-12-03T22:03:14.967Z,43.58
2022-12-03T22:05:42.230Z,43.80
2022-12-03T22:08:09.607Z,46.03
2022-12-03T22:10:37.239Z,41.60
2022-12-03T22:13:04.387Z,39.78
2022-12-03T22:15:31.567Z,40.78
2022-12-03T22:17:58.793Z,50.05
2022-12-03T22:20:25.904Z,43.90
2022-12-03T22:22:53.098Z,41.95
2022-12-03T22:25:20.252Z,38.13
2022-12-03T22:27:47.411Z,41.97
2022-12-03T22:30:14.693Z,44.22
2022-12-03T22:32:41.847Z,44.13
2022-12-03T22:35:09.178Z,41.28
2022-12-03T22:37:36.420Z,45.15
2022-12-03T22:40:03.699Z,42.55
2022-12-03T22:42:30.899Z,42.92
2022-12-03T22:44:58.256Z,42.17
2022-12-03T22:47:25.430Z,38.17
2022-12-03T22:49:52.719Z,41.20
2022-12-03T22:52:19.996Z,39.45
2022-12-03T22:54:47.205Z,40.35
2022-12-03T22:57:14.352Z,43.53
2022-12-03T22:59:41.516Z,40.45
2022-12-03T23:02:08.701Z,39.00
2022-12-03T23:04:35.897Z,38.88
2022-12-03T23:07:03.087Z,39.90
2022-12-03T23:09:30.187Z,41.53
2022-12-03T23:11:57.455Z,39.97
2022-12-03T23:14:24.668Z,39.72
2022-12-03T23:16:51.786Z,37.00
2022-12-03T23:19:19.853Z,40.10
2022-12-03T23:21:47.108Z,38.80
2022-12-03T23:24:14.230Z,39.05
2022-12-03T23:26:41.410Z,42.00
2022-12-03T23:29:08.810Z,36.35
2022-12-03T23:31:36.159Z,36.50
2022-12-03T23:34:04.025Z,40.22
2022-12-03T23:36:32.635Z,41.20
2022-12-03T23:39:00.126Z,41.85
2022-12-03T23:41:27.526Z,40.80
2022-12-03T23:43:54.810Z,42.15
2022-12-03T23:46:23.512Z,38.63
2022-12-03T23:48:51.180Z,38.20
2022-12-03T23:51:19.912Z,39.20
2022-12-03T23:53:47.473Z,35.58
2022-12-03T23:56:16.111Z,36.72
2022-12-03T23:58:43.584Z,35.80
